TimeEST,TemperatureF,Dew PointF,Humidity,Sea Level PressureIn,VisibilityMPH,Wind Direction,Wind SpeedMPH,Gust SpeedMPH,PrecipitationIn,Events,Conditions,WindDirDegrees,DateUTC
12:53 AM,78.1,69.1,74,29.92,10.0,North,11.5,-,N/A,,Partly Cloudy,350,2013-11-03 04:53:00
1:30 AM,77.0,68.0,74,29.91,10.0,North,13.8,-,N/A,,Mostly Cloudy,360,2013-11-03 05:30:00
1:53 AM,77.0,66.0,69,29.91,10.0,North,12.7,-,N/A,,Mostly Cloudy,10,2013-11-03 05:53:00
1:03 AM,77.0,64.4,65,29.91,10.0,North,15.0,-,N/A,,Mostly Cloudy,360,2013-11-03 06:03:00
1:53 AM,77.0,62.1,60,29.91,10.0,North,13.8,-,N/A,,Overcast,360,2013-11-03 06:53:00
2:53 AM,75.0,64.9,71,29.91,10.0,North,18.4,27.6,N/A,,Overcast,10,2013-11-03 07:53:00
3:53 AM,75.9,55.9,50,29.91,10.0,North,19.6,25.3,N/A,,Overcast,10,2013-11-03 08:53:00
4:53 AM,75.0,60.1,60,29.90,10.0,North,19.6,25.3,N/A,,Overcast,10,2013-11-03 09:53:00
5:53 AM,75.0,60.1,60,29.93,10.0,North,15.0,23.0,N/A,,Overcast,10,2013-11-03 10:53:00
6:53 AM,73.9,57.9,57,29.94,10.0,North,18.4,24.2,N/A,,Mostly Cloudy,10,2013-11-03 11:53:00
7:53 AM,73.0,59.0,61,29.95,10.0,NNE,12.7,21.9,N/A,,Mostly Cloudy,20,2013-11-03 12:53:00
8:53 AM,75.9,63.0,64,29.97,10.0,NNE,17.3,25.3,N/A,,Overcast,30,2013-11-03 13:53:00
9:53 AM,77.0,64.0,64,30.00,10.0,NNE,19.6,25.3,N/A,,Scattered Clouds,20,2013-11-03 14:53:00
10:53 AM,75.9,62.1,62,29.99,10.0,NNE,19.6,26.5,N/A,,Scattered Clouds,20,2013-11-03 15:53:00
11:53 AM,78.1,63.0,60,29.98,10.0,NNE,13.8,25.3,N/A,,Partly Cloudy,20,2013-11-03 16:53:00
12:53 PM,78.1,62.1,58,29.96,10.0,NNE,15.0,21.9,N/A,,Partly Cloudy,20,2013-11-03 17:53:00
1:53 PM,79.0,63.0,58,29.94,10.0,NNE,16.1,25.3,N/A,,Scattered Clouds,20,2013-11-03 18:53:00
2:53 PM,80.1,64.0,58,29.93,10.0,NNE,15.0,20.7,N/A,,Partly Cloudy,20,2013-11-03 19:53:00
3:53 PM,80.1,63.0,56,29.92,10.0,NE,12.7,-,N/A,,Partly Cloudy,40,2013-11-03 20:53:00
4:53 PM,79.0,64.0,60,29.93,10.0,NNE,11.5,18.4,N/A,,Partly Cloudy,30,2013-11-03 21:53:00
5:53 PM,78.1,64.9,64,29.94,10.0,NNE,12.7,-,N/A,,Partly Cloudy,30,2013-11-03 22:53:00
6:53 PM,78.1,64.9,64,29.96,10.0,NNE,12.7,-,N/A,,Scattered Clouds,30,2013-11-03 23:53:00
7:53 PM,78.1,66.0,66,29.98,10.0,NE,9.2,17.3,N/A,,Mostly Cloudy,40,2013-11-04 00:53:00
8:53 PM,77.0,64.9,66,30.00,10.0,NE,12.7,20.7,N/A,,Overcast,50,2013-11-04 01:53:00
9:53 PM,75.9,63.0,64,30.00,10.0,NE,18.4,26.5,N/A,,Scattered Clouds,40,2013-11-04 02:53:00
10:53 PM,75.0,30.0,19,30.00,10.0,NE,16.1,26.5,N/A,,Clear,40,2013-11-04 03:53:00